createdAt,value
2023-04-23T00:00:54.221Z,31.22
2023-04-23T00:01:51.642Z,33.62
2023-04-23T00:02:51.699Z,30.18
2023-04-23T00:03:51.744Z,29.50
2023-04-23T00:04:51.790Z,31.80
2023-04-23T00:05:51.586Z,28.83
2023-04-23T00:06:51.679Z,30.29
2023-04-23T00:07:51.595Z,30.91
2023-04-23T00:08:51.559Z,29.98
2023-04-23T00:09:51.573Z,29.30
2023-04-23T00:10:51.604Z,27.05
2023-04-23T00:11:51.561Z,28.50
2023-04-23T00:12:51.584Z,30.97
2023-04-23T00:13:51.580Z,29.07
2023-04-23T00:14:51.540Z,29.06
2023-04-23T00:15:51.558Z,31.60
2023-04-23T00:16:51.505Z,27.51
2023-04-23T00:17:51.565Z,26.63
2023-04-23T00:18:51.507Z,31.73
2023-04-23T00:19:51.611Z,26.50
2023-04-23T00:20:52.385Z,30.77
2023-04-23T00:21:51.578Z,31.07
2023-04-23T00:22:51.513Z,26.72
2023-04-23T00:23:51.481Z,27.36
2023-04-23T00:24:51.481Z,28.12
2023-04-23T00:25:51.493Z,27.71
2023-04-23T00:26:51.447Z,26.76
2023-04-23T00:27:51.464Z,28.52
2023-04-23T00:28:51.464Z,27.67
2023-04-23T00:29:51.470Z,27.29
2023-04-23T00:30:51.462Z,28.12
2023-04-23T00:31:51.498Z,26.12
2023-04-23T00:32:51.494Z,25.45
2023-04-23T00:33:51.429Z,28.37
2023-04-23T00:34:51.413Z,28.00
2023-04-23T00:35:51.416Z,30.30
2023-04-23T00:36:51.410Z,28.26
2023-04-23T00:37:51.437Z,27.92
2023-04-23T00:38:51.387Z,27.19
2023-04-23T00:39:51.375Z,28.21
2023-04-23T00:40:51.407Z,28.91
2023-04-23T00:41:51.355Z,28.08
2023-04-23T00:42:51.344Z,25.89
2023-04-23T00:43:51.348Z,28.88
2023-04-23T00:44:51.373Z,28.57
2023-04-23T00:45:51.399Z,30.42
2023-04-23T00:46:51.323Z,30.69
2023-04-23T00:47:51.349Z,29.37
2023-04-23T00:48:51.302Z,29.56
2023-04-23T00:49:51.311Z,29.84
2023-04-23T00:50:51.285Z,30.66
2023-04-23T00:51:51.341Z,29.62
2023-04-23T00:52:51.285Z,30.38
2023-04-23T00:53:51.287Z,29.40
2023-04-23T00:54:51.278Z,28.58
2023-04-23T00:55:51.355Z,30.26
2023-04-23T00:56:51.276Z,28.27
2023-04-23T00:57:51.272Z,28.85
2023-04-23T00:58:51.280Z,26.71
2023-04-23T00:59:51.249Z,27.91
2023-04-23T01:00:51.275Z,26.60
2023-04-23T01:01:51.238Z,30.29
2023-04-23T01:02:51.344Z,26.85
2023-04-23T01:03:51.416Z,29.08
2023-04-23T01:04:51.242Z,28.50
2023-04-23T01:05:51.211Z,30.02
2023-04-23T01:06:51.186Z,28.80
2023-04-23T01:07:51.205Z,28.04
2023-04-23T01:08:51.178Z,30.64
2023-04-23T01:09:51.187Z,31.23
2023-04-23T01:10:51.158Z,29.42
2023-04-23T01:11:51.160Z,26.79
2023-04-23T01:12:51.403Z,27.97
2023-04-23T01:13:51.142Z,27.97
2023-04-23T01:14:51.133Z,28.37
2023-04-23T01:15:51.142Z,25.00
2023-04-23T01:16:51.152Z,30.65
2023-04-23T01:17:51.191Z,29.25
2023-04-23T01:18:51.094Z,28.75
2023-04-23T01:19:51.103Z,32.18
2023-04-23T01:20:51.092Z,31.11
2023-04-23T01:21:51.105Z,31.04
2023-04-23T01:22:51.108Z,26.54
2023-04-23T01:23:51.088Z,32.00
2023-04-23T01:24:51.063Z,31.00
2023-04-23T01:25:51.070Z,27.10
2023-04-23T01:26:51.040Z,29.48
2023-04-23T01:27:51.068Z,26.90
2023-04-23T01:28:51.031Z,29.03
2023-04-23T01:29:51.041Z,25.18
2023-04-23T01:30:51.058Z,28.97
2023-04-23T01:31:51.021Z,28.03
2023-04-23T01:32:51.022Z,26.58
2023-04-23T01:33:50.991Z,26.46
2023-04-23T01:34:51.020Z,29.23
2023-04-23T01:35:50.981Z,26.59
2023-04-23T01:36:50.975Z,27.10
2023-04-23T01:37:50.965Z,31.49
2023-04-23T01:38:50.992Z,29.08
2023-04-23T01:39:50.968Z,28.86
2023-04-23T01:40:50.958Z,29.33
2023-04-23T01:41:50.942Z,31.32
2023-04-23T01:42:50.976Z,29.68
2023-04-23T01:43:50.904Z,30.21
2023-04-23T01:44:50.961Z,30.39
2023-04-23T01:45:50.928Z,32.59
2023-04-23T01:46:50.919Z,30.33
2023-04-23T01:47:50.905Z,29.71
2023-04-23T01:48:50.917Z,30.13
2023-04-23T01:49:50.903Z,33.15
2023-04-23T01:50:50.931Z,28.69
2023-04-23T01:51:50.921Z,33.59
2023-04-23T01:52:50.887Z,30.65
2023-04-23T01:53:50.867Z,27.55
2023-04-23T01:54:50.890Z,30.49
2023-04-23T01:55:50.864Z,30.20
2023-04-23T01:56:50.870Z,31.05
2023-04-23T01:57:50.852Z,30.00
2023-04-23T01:58:50.835Z,31.19
2023-04-23T01:59:50.830Z,28.01
2023-04-23T02:00:52.524Z,28.56
2023-04-23T02:01:50.854Z,31.03
2023-04-23T02:02:50.916Z,27.11
2023-04-23T02:03:50.897Z,29.52
2023-04-23T02:04:50.771Z,29.65
2023-04-23T02:05:50.765Z,30.15
2023-04-23T02:06:50.818Z,31.16
2023-04-23T02:07:50.781Z,27.48
2023-04-23T02:08:50.779Z,32.66
2023-04-23T02:09:50.772Z,29.28
2023-04-23T02:10:50.752Z,28.38
2023-04-23T02:11:50.779Z,28.59
2023-04-23T02:12:50.719Z,29.91
2023-04-23T02:13:50.748Z,29.99
2023-04-23T02:14:50.710Z,27.43
2023-04-23T02:15:50.739Z,27.22
2023-04-23T02:16:50.723Z,27.35
2023-04-23T02:17:50.748Z,28.06
2023-04-23T02:18:50.693Z,29.27
2023-04-23T02:19:50.719Z,28.60
2023-04-23T02:20:50.734Z,27.05
2023-04-23T02:21:50.663Z,27.03
2023-04-23T02:22:50.695Z,28.84
2023-04-23T02:23:50.694Z,28.89
2023-04-23T02:24:50.664Z,28.07
2023-04-23T02:25:50.692Z,29.08
2023-04-23T02:26:50.673Z,29.05
2023-04-23T02:27:50.690Z,30.68
2023-04-23T02:28:50.666Z,25.86
2023-04-23T02:29:50.622Z,28.45
2023-04-23T02:30:50.653Z,27.31
2023-04-23T02:31:50.698Z,28.21
2023-04-23T02:32:50.662Z,29.22
2023-04-23T02:33:50.621Z,27.69
2023-04-23T02:34:50.592Z,30.56
2023-04-23T02:35:50.633Z,29.34
2023-04-23T02:36:50.583Z,28.03
2023-04-23T02:37:50.563Z,25.63
2023-04-23T02:38:50.579Z,25.63
2023-04-23T02:39:50.616Z,26.21
2023-04-23T02:40:50.566Z,27.04
2023-04-23T02:41:50.581Z,30.25
2023-04-23T02:42:50.568Z,28.98
2023-04-23T02:43:50.551Z,26.09
2023-04-23T02:44:50.567Z,28.65
2023-04-23T02:45:50.520Z,28.66
2023-04-23T02:46:50.557Z,25.78
2023-04-23T02:47:50.570Z,29.00
2023-04-23T02:48:50.516Z,25.77
2023-04-23T02:49:50.525Z,31.19
2023-04-23T02:50:50.509Z,26.38
2023-04-23T02:51:50.481Z,30.64
2023-04-23T02:52:50.485Z,29.91
2023-04-23T02:53:50.492Z,30.01
2023-04-23T02:54:50.469Z,28.24
2023-04-23T02:55:50.470Z,29.21
2023-04-23T02:56:50.432Z,28.64
2023-04-23T02:57:50.446Z,32.48
2023-04-23T02:58:50.487Z,25.85
2023-04-23T02:59:50.422Z,25.93
2023-04-23T03:00:50.485Z,27.27
2023-04-23T03:01:50.442Z,29.13
2023-04-23T03:02:50.508Z,27.35
2023-04-23T03:03:50.495Z,27.14
2023-04-23T03:04:50.423Z,29.68
2023-04-23T03:05:50.379Z,30.02
2023-04-23T03:06:50.443Z,29.87
2023-04-23T03:07:50.380Z,25.93
2023-04-23T03:08:50.371Z,27.56
2023-04-23T03:09:50.403Z,25.99
2023-04-23T03:10:50.334Z,28.17
2023-04-23T03:11:50.328Z,29.67
2023-04-23T03:12:50.375Z,29.20
2023-04-23T03:13:50.328Z,31.14
2023-04-23T03:14:50.370Z,27.27
2023-04-23T03:15:50.429Z,29.85
2023-04-23T03:16:50.534Z,27.93
2023-04-23T03:17:50.657Z,28.24
2023-04-23T03:18:50.601Z,29.00
2023-04-23T03:19:50.683Z,30.33
2023-04-23T03:20:50.693Z,27.58
2023-04-23T03:21:50.758Z,29.22
2023-04-23T03:22:50.829Z,30.63
2023-04-23T03:23:50.904Z,29.69
2023-04-23T03:24:51.492Z,25.17
2023-04-23T03:25:51.014Z,29.63
2023-04-23T03:26:51.062Z,26.40
2023-04-23T03:27:51.136Z,29.70
2023-04-23T03:28:51.205Z,30.35
2023-04-23T03:29:51.249Z,28.29
2023-04-23T03:30:51.361Z,28.48
2023-04-23T03:31:51.375Z,27.61
2023-04-23T03:32:51.446Z,26.20
2023-04-23T03:33:51.478Z,26.35
2023-04-23T03:34:52.496Z,27.46
2023-04-23T03:35:51.559Z,27.96
2023-04-23T03:36:51.651Z,28.46
2023-04-23T03:37:51.725Z,26.90
2023-04-23T03:38:51.741Z,27.99
2023-04-23T03:39:51.794Z,29.41
2023-04-23T03:40:51.834Z,29.18
2023-04-23T03:41:51.918Z,27.76
2023-04-23T03:42:52.016Z,28.38
2023-04-23T03:43:52.042Z,28.53
2023-04-23T03:44:52.076Z,28.47
2023-04-23T03:45:52.146Z,29.97
2023-04-23T03:46:52.279Z,29.62
2023-04-23T03:47:52.297Z,28.87
2023-04-23T03:48:52.320Z,31.12
2023-04-23T03:49:52.426Z,26.62
2023-04-23T03:50:52.464Z,26.72
2023-04-23T03:51:52.502Z,29.09
2023-04-23T03:52:52.544Z,27.13
2023-04-23T03:53:52.536Z,26.00
2023-04-23T03:54:52.555Z,31.20
2023-04-23T03:55:52.585Z,27.41
2023-04-23T03:56:52.572Z,27.09
2023-04-23T03:57:52.584Z,27.77
2023-04-23T03:58:52.605Z,27.72
2023-04-23T03:59:52.598Z,31.33
2023-04-23T04:00:52.592Z,27.06
2023-04-23T04:01:52.605Z,26.43
2023-04-23T04:02:52.770Z,28.30
2023-04-23T04:03:53.084Z,29.65
2023-04-23T04:04:52.846Z,28.80
2023-04-23T04:05:52.771Z,29.90
2023-04-23T04:06:52.999Z,28.82
2023-04-23T04:07:52.670Z,31.93
2023-04-23T04:08:52.640Z,25.44
2023-04-23T04:09:52.654Z,32.25
2023-04-23T04:10:52.686Z,31.56
2023-04-23T04:11:53.404Z,27.62
2023-04-23T04:12:52.726Z,27.97
2023-04-23T04:13:52.731Z,27.89
2023-04-23T04:14:52.738Z,30.34
2023-04-23T04:15:52.877Z,31.76
2023-04-23T04:16:52.799Z,27.26
2023-04-23T04:17:52.896Z,27.64
2023-04-23T04:18:55.118Z,29.48
2023-04-23T04:19:52.813Z,31.84
2023-04-23T04:20:52.818Z,32.83
2023-04-23T04:21:52.783Z,27.38
2023-04-23T04:22:52.771Z,30.93
2023-04-23T04:23:52.781Z,26.35
2023-04-23T04:24:52.840Z,28.08
2023-04-23T04:25:52.776Z,26.49
2023-04-23T04:26:52.793Z,27.47
2023-04-23T04:27:52.751Z,25.85
2023-04-23T04:28:52.764Z,30.59
2023-04-23T04:29:52.734Z,27.58
2023-04-23T04:30:52.748Z,27.60
2023-04-23T04:31:52.945Z,29.09
2023-04-23T04:32:52.758Z,26.48
2023-04-23T04:33:52.736Z,29.22
2023-04-23T04:34:52.702Z,30.44
2023-04-23T04:35:52.712Z,26.38
2023-04-23T04:36:52.710Z,28.14
2023-04-23T04:37:52.719Z,27.85
2023-04-23T04:38:52.775Z,27.27
2023-04-23T04:39:52.694Z,30.02
2023-04-23T04:40:52.643Z,29.82
2023-04-23T04:41:52.678Z,28.35
2023-04-23T04:42:52.650Z,27.75
2023-04-23T04:43:52.704Z,27.39
2023-04-23T04:44:52.623Z,29.47
2023-04-23T04:45:52.637Z,29.39
2023-04-23T04:46:52.625Z,30.43
2023-04-23T04:47:52.695Z,31.01
2023-04-23T04:48:52.635Z,32.73
2023-04-23T04:49:52.590Z,30.85
2023-04-23T04:50:52.582Z,30.12
2023-04-23T04:51:52.576Z,30.54
2023-04-23T04:52:52.623Z,30.06
2023-04-23T04:53:52.585Z,26.42
2023-04-23T04:54:52.578Z,30.39
2023-04-23T04:55:52.567Z,28.75
2023-04-23T04:56:52.572Z,29.84
2023-04-23T04:57:52.557Z,26.89
2023-04-23T04:58:52.580Z,28.61
2023-04-23T04:59:52.538Z,26.29
2023-04-23T05:00:52.561Z,27.75
2023-04-23T05:01:52.521Z,27.35
2023-04-23T05:02:52.691Z,27.55
2023-04-23T05:03:52.684Z,30.87
2023-04-23T05:04:52.511Z,28.22
2023-04-23T05:05:52.513Z,28.60
2023-04-23T05:06:52.497Z,27.33
2023-04-23T05:07:52.477Z,29.88
2023-04-23T05:08:52.494Z,31.01
2023-04-23T05:09:52.497Z,28.88
2023-04-23T05:10:52.491Z,28.03
2023-04-23T05:11:52.466Z,29.83
2023-04-23T05:12:52.460Z,29.27
2023-04-23T05:13:52.459Z,31.15
2023-04-23T05:14:53.839Z,29.02
2023-04-23T05:15:52.444Z,26.36
2023-04-23T05:16:52.432Z,28.77
2023-04-23T05:17:52.489Z,27.97
2023-04-23T05:18:52.405Z,30.87
2023-04-23T05:19:52.409Z,26.06
2023-04-23T05:20:52.408Z,29.95
2023-04-23T05:21:52.493Z,32.97
2023-04-23T05:22:52.477Z,28.04
2023-04-23T05:23:52.558Z,28.03
2023-04-23T05:24:52.580Z,28.64
2023-04-23T05:25:54.200Z,26.30
2023-04-23T05:26:52.727Z,27.55
2023-04-23T05:27:52.772Z,32.45
2023-04-23T05:28:52.838Z,25.00
2023-04-23T05:29:52.924Z,26.18
2023-04-23T05:30:52.998Z,26.97
2023-04-23T05:31:53.059Z,28.40
2023-04-23T05:32:53.163Z,28.44
2023-04-23T05:33:53.161Z,25.46
2023-04-23T05:34:53.181Z,29.63
2023-04-23T05:35:53.233Z,30.29
2023-04-23T05:36:53.237Z,28.57
2023-04-23T05:37:53.252Z,27.19
2023-04-23T05:38:53.288Z,27.08
2023-04-23T05:39:53.305Z,31.39
2023-04-23T05:40:53.451Z,30.34
2023-04-23T05:41:53.364Z,29.83
2023-04-23T05:42:53.401Z,30.41
2023-04-23T05:43:53.434Z,28.98
2023-04-23T05:44:53.444Z,28.58
2023-04-23T05:45:53.460Z,30.70
2023-04-23T05:46:53.512Z,26.77
2023-04-23T05:47:53.557Z,26.18
2023-04-23T05:48:53.485Z,27.92
2023-04-23T05:49:53.496Z,28.10
2023-04-23T05:50:53.501Z,30.72
2023-04-23T05:51:53.574Z,31.23
2023-04-23T05:52:53.553Z,29.49
2023-04-23T05:53:53.600Z,29.54
2023-04-23T05:54:53.649Z,31.33
2023-04-23T05:55:53.696Z,27.05
2023-04-23T05:56:54.717Z,28.25
2023-04-23T05:57:53.742Z,33.97
2023-04-23T05:58:53.821Z,32.14
2023-04-23T05:59:53.847Z,28.47
2023-04-23T06:00:53.893Z,29.08
2023-04-23T06:01:53.949Z,29.80
2023-04-23T06:02:54.099Z,31.37
2023-04-23T06:03:54.275Z,29.46
2023-04-23T06:04:54.417Z,27.09
2023-04-23T06:05:54.294Z,29.91
2023-04-23T06:06:54.233Z,30.70
2023-04-23T06:07:54.289Z,29.64
2023-04-23T06:08:54.386Z,31.87
2023-04-23T06:09:54.439Z,29.77
2023-04-23T06:10:54.491Z,27.60
2023-04-23T06:11:54.547Z,26.95
2023-04-23T06:12:54.560Z,26.96
2023-04-23T06:13:54.616Z,28.71
2023-04-23T06:14:54.647Z,28.75
2023-04-23T06:15:54.767Z,26.98
2023-04-23T06:16:54.778Z,28.33
2023-04-23T06:17:54.845Z,30.89
2023-04-23T06:18:54.854Z,26.48
2023-04-23T06:19:54.910Z,29.11
2023-04-23T06:20:54.930Z,26.84
2023-04-23T06:21:55.017Z,27.56
2023-04-23T06:22:55.092Z,26.21
2023-04-23T06:23:55.163Z,27.74
2023-04-23T06:24:55.165Z,26.58
2023-04-23T06:25:55.198Z,25.00
2023-04-23T06:26:55.235Z,27.08
2023-04-23T06:27:55.339Z,27.24
2023-04-23T06:28:55.334Z,30.25
2023-04-23T06:29:55.373Z,28.72
2023-04-23T06:30:55.434Z,28.59
2023-04-23T06:31:55.483Z,29.64
2023-04-23T06:32:55.536Z,29.57
2023-04-23T06:33:55.573Z,30.56
2023-04-23T06:35:01.642Z,29.73
2023-04-23T06:35:56.591Z,29.93
2023-04-23T06:36:55.587Z,28.42
2023-04-23T06:37:55.580Z,29.69
2023-04-23T06:38:55.568Z,28.79
2023-04-23T06:39:55.575Z,31.17
2023-04-23T06:40:55.570Z,29.59
2023-04-23T06:41:55.560Z,26.23
2023-04-23T06:42:55.551Z,26.34
2023-04-23T06:43:55.593Z,28.34
2023-04-23T06:44:55.666Z,27.24
2023-04-23T06:45:55.668Z,27.44
2023-04-23T06:46:55.715Z,28.39
2023-04-23T06:47:55.803Z,25.24
2023-04-23T06:48:55.825Z,26.26
2023-04-23T06:49:55.860Z,25.00
2023-04-23T06:50:55.947Z,25.65
2023-04-23T06:51:57.763Z,28.19
2023-04-23T06:52:56.037Z,26.88
2023-04-23T06:53:56.065Z,26.38
2023-04-23T06:54:56.129Z,27.28
2023-04-23T06:55:56.198Z,27.54
2023-04-23T06:56:56.264Z,28.44
2023-04-23T06:57:56.283Z,24.26
2023-04-23T06:58:56.343Z,28.47
2023-04-23T06:59:56.389Z,30.20
2023-04-23T07:00:56.462Z,27.34
2023-04-23T07:01:56.477Z,27.75
2023-04-23T07:02:56.571Z,29.05
2023-04-23T07:03:56.605Z,25.94
2023-04-23T07:04:56.622Z,28.33
2023-04-23T07:05:56.649Z,28.38
2023-04-23T07:06:56.734Z,27.74
2023-04-23T07:07:56.744Z,26.74
2023-04-23T07:08:56.775Z,30.92
2023-04-23T07:09:56.870Z,29.64
2023-04-23T07:10:56.895Z,29.34
2023-04-23T07:11:56.958Z,27.78
2023-04-23T07:12:57.165Z,27.05
2023-04-23T07:13:57.073Z,29.94
2023-04-23T07:14:57.161Z,30.35
2023-04-23T07:15:57.155Z,25.69
2023-04-23T07:16:57.230Z,27.92
2023-04-23T07:17:57.269Z,27.14
2023-04-23T07:18:57.291Z,27.83
2023-04-23T07:19:57.324Z,30.79
2023-04-23T07:20:57.369Z,30.19
2023-04-23T07:21:57.402Z,27.02
2023-04-23T07:22:57.484Z,28.02
2023-04-23T07:23:57.541Z,27.78
2023-04-23T07:24:57.526Z,29.98
2023-04-23T07:25:57.564Z,28.57
2023-04-23T07:26:57.607Z,29.01
2023-04-23T07:27:57.698Z,28.29
2023-04-23T07:28:57.746Z,31.63
2023-04-23T07:29:57.727Z,29.01
2023-04-23T07:30:57.789Z,28.61
2023-04-23T07:31:57.824Z,28.11
2023-04-23T07:32:58.595Z,26.84
2023-04-23T07:33:57.903Z,26.83
2023-04-23T07:34:57.955Z,26.68
2023-04-23T07:35:57.989Z,31.39
2023-04-23T07:36:58.057Z,29.50
2023-04-23T07:37:58.064Z,27.31
2023-04-23T07:38:58.096Z,29.19
2023-04-23T07:39:58.165Z,30.33
2023-04-23T07:40:58.187Z,27.81
2023-04-23T07:41:58.282Z,30.70
2023-04-23T07:42:58.350Z,31.48
2023-04-23T07:43:58.375Z,30.59
2023-04-23T07:44:58.420Z,30.34
2023-04-23T07:45:58.492Z,29.42
2023-04-23T07:46:58.516Z,29.90
2023-04-23T07:47:58.636Z,28.38
2023-04-23T07:48:58.617Z,31.19
2023-04-23T07:49:58.666Z,32.51
2023-04-23T07:50:58.748Z,30.27
2023-04-23T07:51:58.793Z,31.21
2023-04-23T07:52:58.859Z,33.63
2023-04-23T07:53:58.874Z,32.50
2023-04-23T07:54:58.941Z,31.25
2023-04-23T07:55:58.990Z,31.44
2023-04-23T07:56:59.006Z,30.84
2023-04-23T07:57:59.062Z,30.49
2023-04-23T07:58:59.086Z,31.63
2023-04-23T07:59:59.175Z,32.67
2023-04-23T08:00:59.208Z,31.36
2023-04-23T08:01:59.260Z,31.48
2023-04-23T08:02:59.403Z,31.73
2023-04-23T08:03:59.872Z,31.15
2023-04-23T08:04:59.501Z,32.32
2023-04-23T08:05:59.438Z,30.95
2023-04-23T08:06:59.481Z,29.64
2023-04-23T08:07:59.546Z,29.81
2023-04-23T08:08:59.617Z,29.74
2023-04-23T08:09:59.674Z,33.66
2023-04-23T08:10:59.696Z,31.92
2023-04-23T08:11:59.775Z,35.09
2023-04-23T08:12:59.790Z,30.98
2023-04-23T08:13:59.883Z,30.38
2023-04-23T08:14:59.938Z,31.17
2023-04-23T08:16:00.004Z,32.40
2023-04-23T08:17:00.005Z,31.61
2023-04-23T08:18:00.134Z,30.72
2023-04-23T08:19:05.479Z,29.78
2023-04-23T08:20:01.120Z,30.05
2023-04-23T08:21:00.135Z,30.24
2023-04-23T08:22:00.131Z,31.06
2023-04-23T08:23:00.125Z,31.60
2023-04-23T08:24:00.135Z,29.07
2023-04-23T08:25:00.150Z,29.96
2023-04-23T08:26:00.154Z,30.50
2023-04-23T08:27:00.149Z,29.02
2023-04-23T08:28:00.134Z,30.51
2023-04-23T08:29:00.187Z,26.52
2023-04-23T08:30:00.249Z,31.01
2023-04-23T08:31:00.355Z,31.88
2023-04-23T08:32:00.365Z,28.98
2023-04-23T08:33:00.424Z,28.89
2023-04-23T08:34:00.405Z,30.09
2023-04-23T08:35:00.453Z,29.63
2023-04-23T08:36:00.547Z,29.67
2023-04-23T08:37:00.560Z,28.64
2023-04-23T08:38:00.610Z,32.43
2023-04-23T08:39:00.679Z,29.91
2023-04-23T08:40:00.732Z,29.86
2023-04-23T08:41:00.723Z,27.05
2023-04-23T08:42:00.804Z,30.72
2023-04-23T08:43:00.804Z,25.78
2023-04-23T08:44:00.861Z,25.00
2023-04-23T08:45:00.923Z,30.68
2023-04-23T08:46:00.970Z,27.10
2023-04-23T08:47:01.060Z,29.03
2023-04-23T08:48:02.412Z,29.25
2023-04-23T08:49:01.136Z,29.13
2023-04-23T08:50:01.170Z,28.87
2023-04-23T08:51:01.232Z,29.03
2023-04-23T08:52:01.294Z,29.40
2023-04-23T08:53:01.308Z,29.48
2023-04-23T08:54:01.396Z,29.75
2023-04-23T08:55:01.427Z,26.99
2023-04-23T08:56:01.519Z,28.04
2023-04-23T08:57:01.568Z,29.52
2023-04-23T08:58:01.578Z,29.60
2023-04-23T08:59:01.656Z,29.47
2023-04-23T09:00:01.675Z,28.79
2023-04-23T09:01:01.764Z,29.92
2023-04-23T09:02:01.872Z,28.46
2023-04-23T09:03:01.944Z,28.76
2023-04-23T09:04:01.904Z,28.95
2023-04-23T09:05:01.849Z,28.30
2023-04-23T09:06:01.893Z,29.15
2023-04-23T09:07:01.968Z,26.68
2023-04-23T09:08:02.045Z,25.49
2023-04-23T09:09:02.072Z,28.42
2023-04-23T09:10:02.077Z,28.74
2023-04-23T09:11:02.099Z,29.12
2023-04-23T09:12:02.145Z,27.38
2023-04-23T09:13:02.180Z,28.50
2023-04-23T09:14:02.201Z,26.55
2023-04-23T09:15:02.235Z,29.44
2023-04-23T09:16:02.253Z,29.52
2023-04-23T09:17:02.219Z,27.27
2023-04-23T09:18:02.276Z,28.90
2023-04-23T09:19:02.276Z,25.00
2023-04-23T09:20:02.301Z,26.94
2023-04-23T09:21:02.278Z,26.63
2023-04-23T09:22:02.333Z,29.07
2023-04-23T09:23:02.320Z,25.43
2023-04-23T09:24:02.322Z,29.16
2023-04-23T09:25:02.323Z,26.42
2023-04-23T09:26:02.334Z,32.61
2023-04-23T09:27:02.347Z,27.33
2023-04-23T09:28:02.313Z,26.44
2023-04-23T09:29:02.368Z,29.93
2023-04-23T09:30:02.314Z,28.24
2023-04-23T09:31:02.345Z,27.90
2023-04-23T09:32:02.456Z,26.90
2023-04-23T09:33:02.430Z,28.33
2023-04-23T09:34:02.643Z,27.70
2023-04-23T09:35:02.404Z,27.44
2023-04-23T09:36:02.411Z,27.12
2023-04-23T09:37:02.421Z,27.11
2023-04-23T09:38:02.438Z,29.46
2023-04-23T09:39:02.405Z,30.61
2023-04-23T09:40:02.398Z,28.34
2023-04-23T09:41:02.451Z,29.88
2023-04-23T09:42:02.417Z,28.62
2023-04-23T09:43:02.415Z,28.44
2023-04-23T09:44:02.432Z,27.56
2023-04-23T09:45:02.392Z,27.11
2023-04-23T09:46:02.449Z,27.92
2023-04-23T09:47:02.432Z,27.52
2023-04-23T09:48:02.555Z,29.05
2023-04-23T09:49:02.431Z,29.17
2023-04-23T09:50:02.420Z,27.83
2023-04-23T09:51:02.415Z,29.07
2023-04-23T09:52:02.436Z,30.30
2023-04-23T09:53:02.408Z,27.82
2023-04-23T09:54:02.388Z,26.94
2023-04-23T09:55:02.421Z,28.09
2023-04-23T09:56:02.408Z,28.12
2023-04-23T09:57:02.404Z,26.99
2023-04-23T09:58:02.413Z,28.39
2023-04-23T09:59:02.490Z,27.68
2023-04-23T10:00:13.602Z,26.07
2023-04-23T10:01:03.401Z,26.38
2023-04-23T10:02:02.370Z,27.12
2023-04-23T10:03:02.422Z,27.41
2023-04-23T10:04:02.528Z,27.86
2023-04-23T10:05:14.570Z,28.34
2023-04-23T10:06:03.559Z,26.39
2023-04-23T10:08:03.317Z,26.46
2023-04-23T10:09:02.356Z,27.01
2023-04-23T10:10:02.324Z,27.75
2023-04-23T10:11:13.615Z,29.25
2023-04-23T10:12:03.341Z,26.48
2023-04-23T10:13:02.305Z,26.87
2023-04-23T10:14:02.287Z,28.69
2023-04-23T10:15:02.324Z,28.58
2023-04-23T10:16:14.016Z,32.25
2023-04-23T10:17:03.263Z,26.33
2023-04-23T10:18:02.283Z,26.80
2023-04-23T10:19:02.268Z,27.07
2023-04-23T10:20:02.274Z,28.10
2023-04-23T10:21:02.261Z,27.62
2023-04-23T10:22:17.773Z,28.57
2023-04-23T10:23:03.241Z,28.79
2023-04-23T10:24:02.236Z,29.19
2023-04-23T10:25:02.253Z,27.38
2023-04-23T10:26:02.193Z,28.56
2023-04-23T10:27:02.307Z,30.02
2023-04-23T10:28:02.177Z,26.53
2023-04-23T10:29:02.196Z,25.29
2023-04-23T10:30:03.248Z,29.26
2023-04-23T10:31:02.373Z,28.95
2023-04-23T10:32:02.341Z,29.93
2023-04-23T10:33:02.400Z,26.96
2023-04-23T10:34:02.453Z,25.69
2023-04-23T10:35:02.378Z,26.11
2023-04-23T10:36:02.375Z,29.93
2023-04-23T10:37:02.366Z,30.58
2023-04-23T10:38:02.349Z,33.56
2023-04-23T10:39:02.350Z,32.54
2023-04-23T10:40:02.356Z,30.38
2023-04-23T10:41:02.303Z,31.91
2023-04-23T10:42:02.342Z,27.71
2023-04-23T10:43:02.319Z,31.15
2023-04-23T10:44:02.301Z,29.44
2023-04-23T10:45:09.999Z,28.40
2023-04-23T10:46:03.326Z,28.64
2023-04-23T10:47:02.456Z,28.59
2023-04-23T10:48:02.335Z,29.12
2023-04-23T10:49:02.292Z,29.69
2023-04-23T10:50:02.277Z,27.81
2023-04-23T10:51:09.664Z,30.73
2023-04-23T10:52:17.740Z,30.88
2023-04-23T10:53:03.278Z,31.02
2023-04-23T10:54:02.247Z,31.45
2023-04-23T10:55:02.320Z,32.15
2023-04-23T10:56:02.249Z,30.50
2023-04-23T10:57:02.236Z,31.28
2023-04-23T10:58:02.870Z,28.37
2023-04-23T10:59:02.203Z,26.23
2023-04-23T11:00:02.243Z,29.21
2023-04-23T11:01:02.197Z,26.65
2023-04-23T11:02:02.255Z,30.08
2023-04-23T11:03:02.330Z,32.10
2023-04-23T11:04:02.277Z,28.70
2023-04-23T11:05:02.310Z,30.56
2023-04-23T11:06:02.180Z,30.89
2023-04-23T11:07:02.161Z,30.46
2023-04-23T11:08:10.961Z,26.47
2023-04-23T11:09:03.188Z,26.83
2023-04-23T11:10:02.126Z,27.53
2023-04-23T11:11:02.139Z,26.76
2023-04-23T11:12:02.140Z,29.86
2023-04-23T11:13:02.100Z,31.24
2023-04-23T11:14:02.141Z,28.88
2023-04-23T11:15:02.166Z,26.98
2023-04-23T11:16:02.145Z,29.77
2023-04-23T11:17:02.104Z,26.93
2023-04-23T11:18:02.220Z,25.20
2023-04-23T11:19:02.114Z,29.24
2023-04-23T11:20:02.155Z,31.53
2023-04-23T11:21:02.058Z,26.92
2023-04-23T11:22:02.117Z,25.73
2023-04-23T11:23:02.064Z,26.70
2023-04-23T11:24:02.049Z,29.84
2023-04-23T11:25:02.033Z,31.71
2023-04-23T11:26:02.066Z,26.83
2023-04-23T11:27:02.041Z,27.89
2023-04-23T11:28:02.022Z,31.81
2023-04-23T11:29:02.008Z,30.57
2023-04-23T11:30:02.054Z,28.49
2023-04-23T11:31:02.004Z,29.13
2023-04-23T11:32:03.585Z,29.51
2023-04-23T11:33:02.386Z,28.92
2023-04-23T11:34:02.025Z,28.62
2023-04-23T11:35:01.992Z,30.26
2023-04-23T11:36:01.977Z,26.85
2023-04-23T11:37:01.971Z,31.03
2023-04-23T11:38:01.941Z,29.88
2023-04-23T11:39:01.964Z,25.69
2023-04-23T11:40:01.935Z,29.17
2023-04-23T11:41:01.944Z,28.43
2023-04-23T11:42:01.939Z,29.32
2023-04-23T11:43:01.934Z,28.85
2023-04-23T11:44:01.922Z,29.44
2023-04-23T11:45:01.949Z,27.82
2023-04-23T11:46:01.931Z,29.91
2023-04-23T11:47:01.922Z,30.44
2023-04-23T11:48:01.915Z,28.16
2023-04-23T11:49:01.887Z,34.02
2023-04-23T11:50:01.886Z,31.07
2023-04-23T11:51:01.888Z,30.52
2023-04-23T11:52:01.917Z,32.04
2023-04-23T11:53:01.893Z,27.54
2023-04-23T11:54:01.957Z,27.86
2023-04-23T11:55:01.964Z,28.79
2023-04-23T11:56:01.944Z,32.10
2023-04-23T11:57:01.962Z,28.03
2023-04-23T11:58:01.982Z,29.57
2023-04-23T11:59:01.984Z,28.66
2023-04-23T12:00:01.994Z,29.79
2023-04-23T12:01:02.011Z,26.24
2023-04-23T12:02:02.029Z,29.51
2023-04-23T12:03:02.259Z,32.12
2023-04-23T12:04:02.318Z,27.24
2023-04-23T12:05:02.049Z,30.02
2023-04-23T12:06:02.009Z,28.39
2023-04-23T12:07:04.277Z,29.79
2023-04-23T12:08:03.013Z,29.92
2023-04-23T12:09:02.006Z,30.18
2023-04-23T12:10:01.996Z,29.22
2023-04-23T12:11:02.011Z,29.93
2023-04-23T12:12:02.002Z,31.72
2023-04-23T12:13:01.980Z,30.33
2023-04-23T12:14:01.997Z,31.22
2023-04-23T12:15:02.011Z,33.58
2023-04-23T12:16:02.004Z,30.15
2023-04-23T12:17:01.955Z,29.99
2023-04-23T12:18:01.984Z,30.06
2023-04-23T12:19:01.922Z,33.64
2023-04-23T12:20:01.927Z,30.69
2023-04-23T12:21:01.937Z,28.74
2023-04-23T12:22:01.920Z,28.64
2023-04-23T12:23:01.899Z,32.98
2023-04-23T12:24:01.897Z,27.76
2023-04-23T12:25:01.912Z,28.72
2023-04-23T12:26:01.897Z,30.29
2023-04-23T12:27:01.927Z,28.75
2023-04-23T12:28:01.906Z,29.25
2023-04-23T12:29:01.866Z,25.78
2023-04-23T12:30:02.960Z,26.09
2023-04-23T12:31:01.902Z,33.88
2023-04-23T12:32:01.855Z,31.74
2023-04-23T12:33:01.889Z,33.72
2023-04-23T12:34:01.833Z,35.76
2023-04-23T12:35:01.837Z,33.72
2023-04-23T12:36:01.815Z,33.39
2023-04-23T12:37:01.830Z,33.45
2023-04-23T12:38:01.834Z,36.87
2023-04-23T12:39:01.837Z,34.72
2023-04-23T12:40:01.819Z,34.88
2023-04-23T12:41:01.873Z,35.78
2023-04-23T12:42:01.825Z,33.52
2023-04-23T12:43:01.809Z,24.64
2023-04-23T12:44:01.775Z,27.27
2023-04-23T12:45:01.790Z,25.73
2023-04-23T12:46:01.765Z,30.60
2023-04-23T12:47:01.812Z,38.93
2023-04-23T12:48:01.807Z,47.53
2023-04-23T12:49:01.767Z,52.72
2023-04-23T12:50:01.774Z,52.32
2023-04-23T12:51:01.712Z,45.20
2023-04-23T12:52:01.754Z,51.27
2023-04-23T12:53:01.753Z,53.64
2023-04-23T12:54:01.745Z,48.21